Rabun Gap, GA

7:55 AM EDT on June 02, 2015 (GMT -0400)
The Yee Haw House | | Change Station
CLOSE
Current Station
Personal Weather Station
Location: Rabun Gap, GA
Elevation: 2690 ft
Nearby Weather Stations

Elev 2690 ft 34.98 °N, 83.40 °W | Updated 3 seconds ago

Overcast
Overcast
58.3 °F
Feels Like 58.3 °F
N
0.0
Wind Variable Wind from East
Gusts 1.0 mph

Today
High -- | Low -- °F
--% Chance of Precip.
Yesterday
High -- | Low -- °F
Precip. -- in
6:20 AM 8:42 PM
Full, 100% visible
Pressure 30.03 in
Visibility 10.0 miles
Clouds Mostly Cloudy 200 ft
Overcast 10000 ft
Dew Point 58 °F
Humidity 100%
Rainfall 0.00 in
Snow Depth Not available.
UV 0 out of 12
Pollen 2.80 out of 12
Air Quality Not available.
Flu Activity Sporadic
METAR KTOC 021135Z AUTO 00000KT 10SM BKN002 OVC100 19/19 A3003 RMK AO2 T01870186

More Conditions Fewer Conditions

Pressure 30.03 in
Visibility 10.0 miles
Clouds Mostly Cloudy 200 ft
Overcast 10000 ft
Dew Point 58 °F
Humidity 100%
Rainfall 0.00 in
Snow Depth Not available.
UV 0 out of 12
Pollen 2.80 out of 12
Air Quality Not available.
Flu Activity Sporadic
METAR KTOC 021135Z AUTO 00000KT 10SM BKN002 OVC100 19/19 A3003 RMK AO2 T01870186

More Conditions Fewer Conditions

10-Day Weather Forecast

Almanac

Astronomy

Jun. 02, 2015 Rise Set
Actual Time
Civil Twilight
Nautical Twilight
Astronomical Twilight
Moon
Length of Visible Light
Length of Day
Tomorrow will be .
, % of the Moon is Illuminated

Today's Extremes

State Highs State Lows

Community

WunderPhotos

Upload Photos

1,825,896 photos uploaded!

WunderBlogs® & News

Nearby

Air Quality

  Air Quality AQ Index Pollutant
Not available.

Snow Depth

Station Depth Elevation

Earthquake Activity

City Distance Mag. Time & Date
Minimum magnitude displayed is 2.5.

Coastal Water Temperatures

Place Temperature

Stations

Nearby Weather Stations

Station Location Temp. Windchill Dew Point Humidity Wind Precip. Elev Updated Type